createdAt,value
2022-12-31T00:00:08.868Z,99.90
2022-12-31T00:02:36.267Z,99.90
2022-12-31T00:05:04.400Z,99.90
2022-12-31T00:09:57.710Z,99.90
2022-12-31T00:12:25.373Z,99.90
2022-12-31T00:14:52.078Z,99.90
2022-12-31T00:17:18.805Z,99.90
2022-12-31T00:19:45.520Z,99.90
2022-12-31T00:22:12.240Z,99.90
2022-12-31T00:24:38.993Z,99.90
2022-12-31T00:27:05.728Z,99.90
2022-12-31T00:29:32.530Z,99.90
2022-12-31T00:31:59.343Z,99.90
2022-12-31T00:34:26.074Z,99.90
2022-12-31T00:36:53.268Z,99.90
2022-12-31T00:39:20.055Z,99.90
2022-12-31T00:41:46.965Z,99.90
2022-12-31T00:44:13.799Z,99.90
2022-12-31T00:49:06.493Z,99.90
2022-12-31T00:51:33.625Z,99.90
2022-12-31T00:54:00.488Z,99.90
2022-12-31T00:56:30.048Z,99.90
2022-12-31T00:58:57.560Z,99.90
2022-12-31T01:01:29.902Z,99.90
2022-12-31T01:04:01.230Z,99.90
2022-12-31T01:06:28.290Z,99.90
2022-12-31T01:08:55.636Z,99.90
2022-12-31T01:11:24.182Z,99.90
2022-12-31T01:14:00.965Z,99.90
2022-12-31T01:16:49.708Z,99.90
2022-12-31T01:19:22.417Z,99.90
2022-12-31T01:21:50.160Z,99.90
2022-12-31T01:24:17.838Z,99.90
2022-12-31T01:26:45.153Z,99.90
2022-12-31T01:29:12.762Z,99.90
2022-12-31T01:31:40.092Z,99.90
2022-12-31T01:34:07.778Z,99.90
2022-12-31T01:36:36.432Z,99.90
2022-12-31T01:39:05.588Z,99.90
2022-12-31T01:41:38.691Z,99.90
2022-12-31T01:44:11.370Z,99.90
2022-12-31T01:46:44.284Z,99.90
2022-12-31T01:49:26.645Z,99.90
2022-12-31T01:51:57.995Z,99.90
2022-12-31T01:54:27.192Z,99.90
2022-12-31T01:56:56.315Z,99.90
2022-12-31T01:59:25.453Z,99.90
2022-12-31T02:01:54.980Z,99.90
2022-12-31T02:04:24.794Z,99.90
2022-12-31T02:07:05.224Z,99.90
2022-12-31T02:09:32.496Z,99.90
2022-12-31T02:11:59.924Z,99.90
2022-12-31T02:14:42.550Z,99.90
2022-12-31T02:17:33.448Z,99.90
2022-12-31T02:20:23.234Z,99.90
2022-12-31T02:23:08.151Z,99.90
2022-12-31T02:25:52.680Z,99.90
2022-12-31T02:28:37.152Z,99.90
2022-12-31T02:31:24.114Z,99.90
2022-12-31T02:34:02.325Z,99.90
2022-12-31T02:36:34.407Z,99.90
2022-12-31T02:39:04.039Z,99.90
2022-12-31T02:41:49.430Z,99.90
2022-12-31T02:44:35.492Z,99.90
2022-12-31T02:47:08.406Z,99.90
2022-12-31T02:49:47.148Z,99.90
2022-12-31T02:52:26.567Z,99.90
2022-12-31T02:55:09.110Z,99.90
2022-12-31T02:57:41.252Z,99.90
2022-12-31T03:00:30.381Z,99.90
2022-12-31T03:02:59.187Z,99.90
2022-12-31T03:05:29.901Z,99.90
2022-12-31T03:07:56.694Z,99.90
2022-12-31T03:10:23.549Z,99.90
2022-12-31T03:12:51.404Z,99.90
2022-12-31T03:15:20.436Z,99.90
2022-12-31T03:18:01.181Z,99.90
2022-12-31T03:20:53.451Z,99.90
2022-12-31T03:23:38.787Z,99.90
2022-12-31T03:26:10.623Z,99.90
2022-12-31T03:28:39.303Z,99.90
2022-12-31T03:31:07.005Z,99.90
2022-12-31T03:33:39.275Z,99.90
2022-12-31T03:36:09.988Z,99.90
2022-12-31T03:38:36.956Z,99.90
2022-12-31T03:41:04.292Z,99.90
2022-12-31T03:43:31.010Z,99.90
2022-12-31T03:45:59.893Z,99.90
2022-12-31T03:48:26.885Z,99.90
2022-12-31T03:50:53.714Z,99.90
2022-12-31T03:53:20.482Z,99.90
2022-12-31T03:55:52.037Z,99.90
2022-12-31T03:58:18.853Z,99.90
2022-12-31T04:00:45.617Z,99.90
2022-12-31T04:03:12.448Z,99.90
2022-12-31T04:05:39.322Z,99.90
2022-12-31T04:08:06.042Z,99.90
2022-12-31T04:10:32.785Z,99.90
2022-12-31T04:13:02.324Z,99.90
2022-12-31T04:15:29.040Z,99.90
2022-12-31T04:17:55.776Z,99.90
2022-12-31T04:20:22.457Z,99.90
2022-12-31T04:22:49.169Z,99.90
2022-12-31T04:25:15.942Z,99.90
2022-12-31T04:27:43.733Z,99.90
2022-12-31T04:30:12.870Z,99.90
2022-12-31T04:32:39.916Z,99.90
2022-12-31T04:35:07.275Z,99.90
2022-12-31T04:37:34.007Z,99.90
2022-12-31T04:40:05.883Z,99.90
2022-12-31T04:42:34.121Z,99.90
2022-12-31T04:45:00.987Z,99.90
2022-12-31T04:47:27.956Z,99.90
2022-12-31T04:49:54.701Z,99.90
2022-12-31T04:52:21.630Z,99.90
2022-12-31T04:54:48.344Z,99.90
2022-12-31T04:57:15.148Z,99.90
2022-12-31T04:59:41.844Z,99.90
2022-12-31T05:02:08.740Z,99.90
2022-12-31T05:04:35.558Z,99.90
2022-12-31T05:07:02.417Z,99.90
2022-12-31T05:09:29.723Z,99.90
2022-12-31T05:11:56.600Z,99.90
2022-12-31T05:14:23.365Z,99.90
2022-12-31T05:16:50.526Z,99.90
2022-12-31T05:19:17.315Z,99.90
2022-12-31T05:21:44.323Z,99.90
2022-12-31T05:24:11.019Z,99.90
2022-12-31T05:26:37.723Z,99.90
2022-12-31T05:29:04.443Z,99.90
2022-12-31T05:31:31.121Z,99.90
2022-12-31T05:33:57.840Z,99.90
2022-12-31T05:36:24.684Z,99.90
2022-12-31T05:38:51.395Z,99.90
2022-12-31T05:41:18.081Z,99.90
2022-12-31T05:43:44.768Z,99.90
2022-12-31T05:46:11.536Z,99.90
2022-12-31T05:48:38.277Z,99.90
2022-12-31T05:51:05.273Z,99.90
2022-12-31T05:53:33.354Z,99.90
2022-12-31T05:56:00.221Z,99.90
2022-12-31T05:58:26.911Z,99.90
2022-12-31T06:00:53.711Z,99.90
2022-12-31T06:03:20.584Z,99.90
2022-12-31T06:05:47.386Z,99.90
2022-12-31T06:08:14.105Z,99.90
2022-12-31T06:10:40.825Z,99.90
2022-12-31T06:13:08.089Z,99.90
2022-12-31T06:15:38.411Z,99.90
2022-12-31T06:18:05.434Z,99.90
2022-12-31T06:20:32.163Z,99.90
2022-12-31T06:22:58.944Z,99.90
2022-12-31T06:25:25.704Z,99.90
2022-12-31T06:27:52.488Z,99.90
2022-12-31T06:30:19.180Z,99.90
2022-12-31T06:32:46.117Z,99.90
2022-12-31T06:35:13.236Z,99.90
2022-12-31T06:37:40.065Z,99.90
2022-12-31T06:40:07.572Z,99.90
2022-12-31T06:42:34.415Z,99.90
2022-12-31T06:45:01.357Z,99.90
2022-12-31T06:47:28.067Z,99.90
2022-12-31T06:49:54.796Z,99.90
2022-12-31T06:52:22.057Z,99.90
2022-12-31T06:54:49.091Z,99.90
2022-12-31T06:57:16.143Z,99.90
2022-12-31T06:59:43.262Z,99.90
2022-12-31T07:02:51.910Z,99.90
2022-12-31T07:05:39.762Z,99.90
2022-12-31T07:08:24.683Z,99.90
2022-12-31T07:11:07.132Z,99.90
2022-12-31T07:14:07.657Z,99.90
2022-12-31T07:16:46.477Z,99.90
2022-12-31T07:19:32.634Z,99.90
2022-12-31T07:21:59.738Z,99.90
2022-12-31T07:24:26.986Z,99.90
2022-12-31T07:27:19.970Z,99.90
2022-12-31T07:30:14.552Z,99.90
2022-12-31T07:33:02.428Z,99.90
2022-12-31T07:35:35.241Z,99.90
2022-12-31T07:38:29.085Z,99.90
2022-12-31T07:41:20.651Z,99.90
2022-12-31T07:44:08.549Z,99.90
2022-12-31T07:46:48.296Z,99.90
2022-12-31T07:49:15.725Z,99.90
2022-12-31T07:54:14.206Z,99.90
2022-12-31T07:56:42.184Z,99.90
2022-12-31T07:59:23.930Z,99.90
2022-12-31T08:02:00.664Z,99.90
2022-12-31T08:04:33.644Z,99.90
2022-12-31T08:07:40.153Z,99.90
2022-12-31T08:10:18.293Z,99.90
2022-12-31T08:12:46.828Z,99.90
2022-12-31T08:15:15.840Z,99.90
2022-12-31T08:17:43.252Z,99.90
2022-12-31T08:20:19.067Z,99.90
2022-12-31T08:23:09.839Z,99.90
2022-12-31T08:26:08.367Z,99.90
2022-12-31T08:28:35.153Z,99.90
2022-12-31T08:31:06.329Z,99.90
2022-12-31T08:33:56.803Z,99.90
2022-12-31T08:36:45.058Z,99.90
2022-12-31T08:39:40.257Z,99.90
2022-12-31T08:42:19.384Z,99.90
2022-12-31T08:45:07.443Z,99.90
2022-12-31T08:47:46.869Z,99.90
2022-12-31T08:50:18.474Z,99.90
2022-12-31T08:52:46.020Z,99.90
2022-12-31T08:55:18.161Z,99.90
2022-12-31T08:58:26.667Z,99.90
2022-12-31T09:00:58.950Z,99.90
2022-12-31T09:03:37.800Z,98.80
2022-12-31T09:06:34.017Z,92.30
2022-12-31T09:09:12.931Z,79.70
2022-12-31T09:11:45.791Z,77.60
2022-12-31T09:14:29.208Z,70.10
2022-12-31T09:17:29.496Z,68.10
2022-12-31T09:19:56.735Z,68.60
2022-12-31T09:22:23.721Z,70.20
2022-12-31T09:24:50.837Z,71.20
2022-12-31T09:27:46.311Z,72.60
2022-12-31T09:30:15.705Z,76.10
2022-12-31T09:33:04.606Z,77.80
2022-12-31T09:35:46.312Z,81.00
2022-12-31T09:38:28.964Z,80.20
2022-12-31T09:41:24.108Z,79.10
2022-12-31T09:44:02.870Z,77.10
2022-12-31T09:46:49.840Z,79.90
2022-12-31T09:49:53.469Z,81.10
2022-12-31T09:52:48.987Z,79.10
2022-12-31T09:55:34.980Z,77.10
2022-12-31T09:58:43.431Z,77.20
2022-12-31T10:01:33.347Z,77.10
2022-12-31T10:04:18.855Z,76.70
2022-12-31T10:07:21.001Z,76.90
2022-12-31T10:10:09.233Z,78.30
2022-12-31T10:12:46.638Z,77.60
2022-12-31T10:15:31.964Z,75.50
2022-12-31T10:18:25.829Z,73.80
2022-12-31T10:21:11.321Z,72.70
2022-12-31T10:24:10.321Z,70.00
2022-12-31T10:27:07.928Z,68.90
2022-12-31T10:29:45.128Z,68.80
2022-12-31T10:32:38.806Z,69.80
2022-12-31T10:35:22.245Z,69.00
2022-12-31T10:38:06.840Z,67.50
2022-12-31T10:40:58.098Z,67.30
2022-12-31T10:43:49.391Z,67.80
2022-12-31T10:46:48.214Z,70.20
2022-12-31T10:49:42.439Z,68.40
2022-12-31T10:52:46.122Z,69.70
2022-12-31T10:55:48.537Z,67.50
2022-12-31T10:58:55.014Z,68.90
2022-12-31T11:01:32.895Z,69.10
2022-12-31T11:04:21.312Z,69.60
2022-12-31T11:07:26.742Z,71.60
2022-12-31T11:10:31.301Z,71.10
2022-12-31T11:13:19.328Z,69.60
2022-12-31T11:16:02.050Z,70.10
2022-12-31T11:18:28.745Z,69.60
2022-12-31T11:21:41.316Z,69.50
2022-12-31T11:24:26.669Z,69.60
2022-12-31T11:27:14.903Z,71.60
2022-12-31T11:30:03.786Z,72.40
2022-12-31T11:32:45.539Z,71.10
2022-12-31T11:35:22.154Z,72.30
2022-12-31T11:38:10.309Z,70.90
2022-12-31T11:40:57.046Z,71.80
2022-12-31T11:43:38.604Z,71.00
2022-12-31T11:46:36.085Z,71.40
2022-12-31T11:49:35.265Z,68.80
2022-12-31T11:52:40.365Z,70.30
2022-12-31T11:55:19.158Z,69.50
2022-12-31T11:57:52.811Z,68.70
2022-12-31T12:00:23.220Z,67.10
2022-12-31T12:03:00.843Z,68.50
2022-12-31T12:05:28.448Z,67.80
2022-12-31T12:07:55.733Z,66.80
2022-12-31T12:10:44.146Z,68.40
2022-12-31T12:13:29.127Z,68.90
2022-12-31T12:15:59.325Z,68.30
2022-12-31T12:18:49.759Z,66.20
2022-12-31T12:21:18.091Z,64.90
2022-12-31T12:24:06.133Z,65.30
2022-12-31T12:26:37.033Z,65.20
2022-12-31T12:29:18.609Z,65.10
2022-12-31T12:32:26.149Z,65.80
2022-12-31T12:34:54.013Z,65.70
2022-12-31T12:37:33.140Z,65.50
2022-12-31T12:40:09.406Z,66.20
2022-12-31T12:42:36.212Z,66.20
2022-12-31T12:45:29.008Z,65.80
2022-12-31T12:48:06.785Z,65.70
2022-12-31T12:50:44.944Z,65.40
2022-12-31T12:53:34.576Z,66.00
2022-12-31T12:56:19.384Z,64.80
2022-12-31T12:58:52.108Z,65.30
2022-12-31T13:01:18.984Z,65.30
2022-12-31T13:04:33.158Z,65.00
2022-12-31T13:07:12.642Z,65.40
2022-12-31T13:10:03.676Z,65.10
2022-12-31T13:13:13.785Z,65.00
2022-12-31T13:15:36.927Z,65.90
2022-12-31T13:18:17.639Z,65.30
2022-12-31T13:21:30.825Z,66.50
2022-12-31T13:24:12.489Z,65.20
2022-12-31T13:26:54.316Z,66.10
2022-12-31T13:29:24.926Z,66.00
2022-12-31T13:31:54.700Z,67.00
2022-12-31T13:34:25.763Z,68.10
2022-12-31T13:36:57.381Z,73.40
2022-12-31T13:39:29.088Z,75.00
2022-12-31T13:42:02.682Z,76.30
2022-12-31T13:44:37.134Z,77.20
2022-12-31T13:47:07.553Z,78.10
2022-12-31T13:49:36.921Z,78.40
2022-12-31T13:54:43.170Z,80.20
2022-12-31T13:57:28.040Z,81.50
2022-12-31T13:59:59.815Z,82.00
2022-12-31T14:02:29.538Z,82.50
2022-12-31T14:05:14.156Z,83.30
2022-12-31T14:07:57.057Z,84.20
2022-12-31T14:11:01.518Z,84.80
2022-12-31T14:13:56.100Z,85.30
2022-12-31T14:17:00.233Z,86.00
2022-12-31T14:19:52.970Z,86.80
2022-12-31T14:22:50.183Z,87.40
2022-12-31T14:25:39.482Z,87.90
2022-12-31T14:28:13.760Z,88.60
2022-12-31T14:30:43.280Z,89.00
2022-12-31T14:33:24.995Z,89.90
2022-12-31T14:36:09.960Z,90.20
2022-12-31T14:38:43.435Z,90.60
2022-12-31T14:41:41.025Z,91.00
2022-12-31T14:44:27.185Z,91.40
2022-12-31T14:47:18.663Z,91.70
2022-12-31T14:50:11.661Z,92.00
2022-12-31T14:53:15.477Z,92.60
2022-12-31T14:55:43.843Z,92.90
2022-12-31T14:58:30.825Z,93.70
2022-12-31T15:01:00.403Z,94.40
2022-12-31T15:03:46.096Z,95.10
2022-12-31T15:06:40.299Z,95.50
2022-12-31T15:09:47.755Z,96.00
2022-12-31T15:12:56.169Z,96.60
2022-12-31T15:15:34.903Z,97.20
2022-12-31T15:18:19.819Z,97.70
2022-12-31T15:20:49.299Z,98.20
2022-12-31T15:23:23.543Z,98.60
2022-12-31T15:26:00.080Z,98.80
2022-12-31T15:28:36.653Z,99.80
2022-12-31T15:31:20.081Z,99.90
2022-12-31T15:34:02.587Z,99.90
2022-12-31T15:36:35.651Z,99.90
2022-12-31T15:39:11.861Z,99.90
2022-12-31T15:42:18.806Z,99.90
2022-12-31T15:44:55.277Z,99.90
2022-12-31T15:47:22.046Z,99.90
2022-12-31T15:49:50.247Z,99.90
2022-12-31T15:52:25.277Z,99.90
2022-12-31T15:54:55.747Z,99.90
2022-12-31T15:57:41.327Z,99.90
2022-12-31T16:00:23.089Z,99.90
2022-12-31T16:02:53.229Z,99.90
2022-12-31T16:05:21.519Z,99.90
2022-12-31T16:07:48.715Z,99.90
2022-12-31T16:10:29.025Z,99.90
2022-12-31T16:12:56.638Z,99.90
2022-12-31T16:15:27.197Z,99.90
2022-12-31T16:18:09.084Z,99.90
2022-12-31T16:20:42.632Z,99.90
2022-12-31T16:23:25.032Z,99.90
2022-12-31T16:25:54.996Z,99.90
2022-12-31T16:28:29.795Z,99.90
2022-12-31T16:31:16.852Z,99.90
2022-12-31T16:33:44.668Z,99.90
2022-12-31T16:36:21.477Z,99.90
2022-12-31T16:38:49.031Z,99.90
2022-12-31T16:41:19.021Z,99.90
2022-12-31T16:43:48.068Z,99.90
2022-12-31T16:46:15.143Z,99.90
2022-12-31T16:48:47.357Z,99.90
2022-12-31T16:51:19.915Z,99.90
2022-12-31T16:53:47.641Z,99.90
2022-12-31T16:56:24.135Z,99.90
2022-12-31T16:58:56.192Z,99.90
2022-12-31T17:01:29.774Z,99.90
2022-12-31T17:04:00.709Z,99.90
2022-12-31T17:06:28.458Z,99.90
2022-12-31T17:08:59.526Z,99.90
2022-12-31T17:12:07.726Z,99.90
2022-12-31T17:14:50.284Z,99.90
2022-12-31T17:17:27.988Z,99.90
2022-12-31T17:20:00.435Z,99.90
2022-12-31T17:22:37.271Z,99.90
2022-12-31T17:25:06.122Z,99.90
2022-12-31T17:27:34.572Z,99.90
2022-12-31T17:30:40.376Z,99.90
2022-12-31T17:33:13.319Z,99.90
2022-12-31T17:35:42.981Z,99.90
2022-12-31T17:38:21.995Z,99.90
2022-12-31T17:40:54.195Z,99.90
2022-12-31T17:43:23.590Z,99.90
2022-12-31T17:45:54.794Z,99.90
2022-12-31T17:48:24.670Z,99.90
2022-12-31T17:50:56.706Z,99.90
2022-12-31T17:53:24.130Z,99.90
2022-12-31T17:55:57.117Z,99.90
2022-12-31T17:58:31.713Z,99.90
2022-12-31T18:00:59.051Z,99.90
2022-12-31T18:03:25.887Z,99.90
2022-12-31T18:05:52.646Z,99.90
2022-12-31T18:08:19.407Z,99.90
2022-12-31T18:10:46.195Z,99.90
2022-12-31T18:13:33.303Z,99.90
2022-12-31T18:16:00.041Z,99.90
2022-12-31T18:18:29.487Z,99.90
2022-12-31T18:21:05.092Z,99.90
2022-12-31T18:23:40.277Z,99.90
2022-12-31T18:26:08.513Z,99.90
2022-12-31T18:28:35.224Z,99.90
2022-12-31T18:31:01.988Z,99.90
2022-12-31T18:33:28.744Z,99.90
2022-12-31T18:36:08.812Z,99.90
2022-12-31T18:38:36.263Z,99.90
2022-12-31T18:41:03.647Z,99.90
2022-12-31T18:43:30.367Z,99.90
2022-12-31T18:45:57.307Z,99.90
2022-12-31T18:48:24.052Z,99.90
2022-12-31T18:50:50.892Z,99.90
2022-12-31T18:53:22.729Z,99.90
2022-12-31T18:55:56.435Z,99.90
2022-12-31T18:58:23.380Z,99.90
2022-12-31T19:00:51.380Z,99.90
2022-12-31T19:03:22.054Z,99.90
2022-12-31T19:05:50.739Z,99.90
2022-12-31T19:08:19.405Z,99.90
2022-12-31T19:10:47.624Z,99.90
2022-12-31T19:13:16.080Z,99.90
2022-12-31T19:15:46.636Z,99.90
2022-12-31T19:18:13.396Z,99.90
2022-12-31T19:20:41.043Z,99.90
2022-12-31T19:23:18.901Z,99.90
2022-12-31T19:25:47.278Z,99.90
2022-12-31T19:28:25.411Z,99.90
2022-12-31T19:30:53.061Z,99.90
2022-12-31T19:33:20.321Z,99.90
2022-12-31T19:35:47.844Z,99.90
2022-12-31T19:38:21.983Z,99.90
2022-12-31T19:40:49.921Z,99.90
2022-12-31T19:43:18.728Z,99.90
2022-12-31T19:45:46.495Z,99.90
2022-12-31T19:48:16.191Z,99.90
2022-12-31T19:50:48.827Z,99.90
2022-12-31T19:53:27.110Z,99.90
2022-12-31T19:55:54.139Z,99.90
2022-12-31T19:58:26.019Z,99.90
2022-12-31T20:01:01.940Z,99.90
2022-12-31T20:03:31.166Z,99.90
2022-12-31T20:06:08.062Z,99.90
2022-12-31T20:08:36.339Z,99.90
2022-12-31T20:11:15.354Z,99.90
2022-12-31T20:13:42.354Z,99.90
2022-12-31T20:16:11.601Z,99.90
2022-12-31T20:18:39.923Z,99.90
2022-12-31T20:21:29.737Z,99.90
2022-12-31T20:23:56.599Z,99.90
2022-12-31T20:26:24.298Z,99.90
2022-12-31T20:28:51.331Z,99.90
2022-12-31T20:31:20.967Z,99.90
2022-12-31T20:33:47.790Z,99.90
2022-12-31T20:36:16.401Z,99.90
2022-12-31T20:38:43.584Z,99.90
2022-12-31T20:41:16.151Z,99.90
2022-12-31T20:43:44.091Z,99.90
2022-12-31T20:46:16.181Z,99.90
2022-12-31T20:48:46.131Z,99.90
2022-12-31T20:51:14.481Z,99.90
2022-12-31T20:53:55.963Z,99.90
2022-12-31T20:56:23.323Z,99.90
2022-12-31T20:58:50.511Z,99.90
2022-12-31T21:01:18.109Z,99.90
2022-12-31T21:06:35.193Z,99.90
2022-12-31T21:09:04.320Z,99.90
2022-12-31T21:11:49.765Z,99.90
2022-12-31T21:14:16.562Z,99.90
2022-12-31T21:16:43.528Z,99.90
2022-12-31T21:19:10.292Z,99.90
2022-12-31T21:21:37.474Z,99.90
2022-12-31T21:24:04.551Z,99.90
2022-12-31T21:26:31.499Z,99.90
2022-12-31T21:28:58.353Z,99.90
2022-12-31T21:31:25.152Z,99.90
2022-12-31T21:33:51.939Z,99.90
2022-12-31T21:36:18.852Z,99.90
2022-12-31T21:38:45.666Z,99.90
2022-12-31T21:41:34.841Z,99.90
2022-12-31T21:44:02.082Z,99.90
2022-12-31T21:46:28.935Z,99.90
2022-12-31T21:48:57.366Z,99.90
2022-12-31T21:51:24.203Z,99.90
2022-12-31T21:53:51.018Z,99.90
2022-12-31T21:56:21.105Z,99.90
2022-12-31T21:59:14.946Z,99.90
2022-12-31T22:02:00.796Z,99.90
2022-12-31T22:05:01.948Z,99.90
2022-12-31T22:07:15.415Z,99.90
2022-12-31T22:09:42.126Z,99.90
2022-12-31T22:12:08.819Z,99.90
2022-12-31T22:14:35.631Z,99.90
2022-12-31T22:17:02.332Z,99.90
2022-12-31T22:19:29.016Z,99.90
2022-12-31T22:21:55.699Z,99.90
2022-12-31T22:24:22.388Z,99.90
2022-12-31T22:26:49.089Z,99.90
2022-12-31T22:29:15.809Z,99.90
2022-12-31T22:31:42.656Z,99.90
2022-12-31T22:34:09.409Z,99.90
2022-12-31T22:36:36.109Z,99.90
2022-12-31T22:39:02.847Z,99.90
2022-12-31T22:41:29.636Z,99.90
2022-12-31T22:44:03.828Z,99.90
2022-12-31T22:46:32.023Z,99.90
2022-12-31T22:49:00.274Z,99.90
2022-12-31T22:51:56.859Z,99.90
2022-12-31T22:54:15.238Z,99.90
2022-12-31T22:56:42.062Z,99.90
2022-12-31T22:59:09.301Z,99.90
2022-12-31T23:01:36.125Z,99.90
2022-12-31T23:04:03.066Z,99.90
2022-12-31T23:06:29.951Z,99.90
2022-12-31T23:09:15.972Z,99.90
2022-12-31T23:11:43.531Z,99.90
2022-12-31T23:14:34.230Z,99.90
2022-12-31T23:17:29.733Z,99.90
2022-12-31T23:20:16.153Z,99.90
2022-12-31T23:23:01.572Z,99.90
2022-12-31T23:25:30.612Z,99.90
2022-12-31T23:27:57.289Z,99.90
2022-12-31T23:30:24.166Z,99.90
2022-12-31T23:32:51.078Z,99.90
2022-12-31T23:35:17.788Z,99.90
2022-12-31T23:37:44.493Z,99.90
2022-12-31T23:40:17.235Z,99.90
2022-12-31T23:42:47.671Z,99.90
2022-12-31T23:45:14.549Z,99.90
2022-12-31T23:47:41.492Z,99.90
2022-12-31T23:50:08.641Z,99.90
2022-12-31T23:52:35.359Z,99.90
2022-12-31T23:55:03.559Z,99.90
2022-12-31T23:57:30.460Z,99.90
2022-12-31T23:59:57.355Z,99.90
